Terminal Aerodrome Forecast
Issued by NWS

Home | Current Version | Previous Version | Text Only | Print | Product List | Glossary On
Versions: 1 2 3 4 5 6 7 8 9 10 11 12 13 14 15 16 17 18 19 20 21 22 23 24 25
334
FTUS43 KLSX 280336 AAA
TAFCPS
TAF AMD
KCPS 280336Z 2804/2824 33006KT P6SM SCT020
      TEMPO 2804/2806 BKN020
     FM280600 34006KT 6SM BR BKN012
     FM281100 35006KT 4SM BR OVC005
     FM281400 01006KT 5SM BR OVC008
     FM281700 02006KT P6SM BKN015
     FM282100 03006KT P6SM BKN035=

USA.gov is the U.S. government's official web portal to all federal, state and local government web resources and services.